Time;durP1;ratioP1;P1;durP2;ratioP2;P2;SDS_P1;SDS_P2;PMS_P1;PMS_P2;Temp;Humidity;BMP_temperature;BMP_pressure;BME280_temperature;BME280_humidity;BME280_pressure;Samples;Min_cycle;Max_cycle;Signal;HPM_P1;HPM_P2
2024/03/15 00:00:14;;;;;;;;;;;;;;;19.35;50.40;100605.06;2065135;28;6342;-65
2024/03/15 00:01:16;;;;;;;;;;;;;;;19.34;50.36;100612.19;2066208;28;2245;-65
2024/03/15 00:02:17;;;;;;;;;;;;;;;19.33;50.30;100610.69;2067075;28;2182;-65
2024/03/15 00:03:20;;;;;;;;;;;;;;;19.33;50.30;100608.56;2065034;28;2148;-65
2024/03/15 00:04:22;;;;;;;;;;;;;;;19.34;50.37;100612.19;2066377;28;2114;-65
2024/03/15 00:05:24;;;;;;;;;;;;;;;19.32;50.27;100609.22;2067810;28;2099;-65
2024/03/15 00:06:26;;;;;;;;;;;;;;;19.34;50.37;100607.19;2065839;28;2190;-66
2024/03/15 00:07:28;;;;;;;;;;;;;;;19.34;50.34;100603.59;2065736;28;2251;-65
2024/03/15 00:08:29;;;;;;;;;;;;;;;19.32;50.43;100601.34;2066498;28;2269;-65
2024/03/15 00:09:31;;;;;;;;;;;;;;;19.33;50.36;100605.69;2066334;28;2126;-65
2024/03/15 00:10:32;;;;;;;;;;;;;;;19.33;50.39;100604.97;2066326;28;2289;-65
2024/03/15 00:11:33;;;;;;;;;;;;;;;19.33;50.36;100604.97;2066573;28;2200;-67
2024/03/15 00:12:35;;;;;;;;;;;;;;;19.33;50.31;100602.09;2067575;28;2205;-68
2024/03/15 00:13:36;;;;;;;;;;;;;;;19.33;50.33;100604.97;2066584;28;2166;-73
2024/03/15 00:14:38;;;;;;;;;;;;;;;19.33;50.22;100599.22;2065862;28;2101;-65
2024/03/15 00:15:39;;;;;;;;;;;;;;;19.32;50.25;100597.75;2065311;28;2102;-71
2024/03/15 00:16:41;;;;;;;;;;;;;;;19.33;50.36;100596.34;2066315;28;2142;-71
2024/03/15 00:17:42;;;;;;;;;;;;;;;19.32;50.36;100592.00;2066902;28;2165;-70
2024/03/15 00:18:44;;;;;;;;;;;;;;;19.31;50.38;100590.50;2065503;28;2147;-71
2024/03/15 00:19:45;;;;;;;;;;;;;;;19.31;50.38;100590.50;2067648;28;2118;-71
2024/03/15 00:20:46;;;;;;;;;;;;;;;19.32;50.23;100592.00;2066260;28;2095;-71
2024/03/15 00:21:48;;;;;;;;;;;;;;;19.31;50.37;100584.75;2066791;28;2263;-70
2024/03/15 00:22:50;;;;;;;;;;;;;;;19.31;50.59;100590.50;2066016;28;2139;-71
2024/03/15 00:23:51;;;;;;;;;;;;;;;19.30;50.27;100595.50;2064844;28;2203;-71
2024/03/15 00:24:52;;;;;;;;;;;;;;;19.31;50.38;100596.25;2065346;28;2401;-71
2024/03/15 00:25:55;;;;;;;;;;;;;;;19.30;50.39;100589.78;2065840;28;2171;-70
2024/03/15 00:26:56;;;;;;;;;;;;;;;19.31;50.19;100590.50;2067317;28;2142;-71
2024/03/15 00:27:57;;;;;;;;;;;;;;;19.30;50.42;100589.78;2066461;28;2197;-71
2024/03/15 00:28:59;;;;;;;;;;;;;;;19.31;50.39;100590.50;2067393;28;2321;-71
2024/03/15 00:30:00;;;;;;;;;;;;;;;19.30;50.35;100583.28;2066674;28;2191;-70
2024/03/15 00:31:04;;;;;;;;;;;;;;;19.30;50.34;100583.28;2065295;28;5859;-70
2024/03/15 00:32:06;;;;;;;;;;;;;;;19.29;50.32;100582.56;2066875;28;2155;-71
2024/03/15 00:33:08;;;;;;;;;;;;;;;19.29;50.41;100581.78;2066583;28;2274;-71
2024/03/15 00:34:10;;;;;;;;;;;;;;;19.29;50.41;100587.53;2067686;28;2193;-70
2024/03/15 00:35:11;;;;;;;;;;;;;;;19.28;50.36;100586.81;2066172;28;2163;-71
2024/03/15 00:36:16;;;;;;;;;;;;;;;19.29;50.39;100581.78;2066250;28;2163;-71
2024/03/15 00:37:18;;;;;;;;;;;;;;;19.28;50.36;100580.31;2065484;28;2150;-71
2024/03/15 00:38:19;;;;;;;;;;;;;;;19.28;50.39;100580.31;2066941;28;2136;-71
2024/03/15 00:39:20;;;;;;;;;;;;;;;19.28;50.08;100583.19;2065695;28;2131;-71
2024/03/15 00:40:22;;;;;;;;;;;;;;;19.28;50.40;100572.44;2066059;28;2127;-70
2024/03/15 00:41:23;;;;;;;;;;;;;;;19.28;50.43;100577.44;2066692;28;2231;-71
2024/03/15 00:42:24;;;;;;;;;;;;;;;19.28;50.42;100565.97;2066425;28;2071;-71
2024/03/15 00:43:26;;;;;;;;;;;;;;;19.27;50.38;100567.38;2068103;28;2134;-71
2024/03/15 00:44:28;;;;;;;;;;;;;;;19.26;50.43;100572.34;2065300;28;2104;-71
2024/03/15 00:45:29;;;;;;;;;;;;;;;19.27;50.45;100567.38;2064989;28;2122;-71
2024/03/15 00:46:31;;;;;;;;;;;;;;;19.26;50.15;100558.00;2064578;28;2142;-71
2024/03/15 00:47:32;;;;;;;;;;;;;;;19.25;50.42;100562.25;2064966;28;2102;-71
2024/03/15 00:48:35;;;;;;;;;;;;;;;19.28;50.40;100554.47;2064769;28;2245;-71
2024/03/15 00:49:36;;;;;;;;;;;;;;;19.27;50.39;100561.63;2065189;28;2460;-71
2024/03/15 00:50:38;;;;;;;;;;;;;;;19.27;50.45;100553.03;2064229;28;2149;-71
2024/03/15 00:51:39;;;;;;;;;;;;;;;19.27;50.36;100553.03;2066448;28;2146;-71
2024/03/15 00:52:41;;;;;;;;;;;;;;;19.27;50.48;100561.63;2066913;28;2091;-70
2024/03/15 00:53:42;;;;;;;;;;;;;;;19.26;50.38;100560.88;2067478;28;2509;-70
2024/03/15 00:54:45;;;;;;;;;;;;;;;19.25;50.42;100560.13;2069680;28;2205;-71
2024/03/15 00:55:47;;;;;;;;;;;;;;;19.25;50.54;100548.66;2065193;28;2066;-71
2024/03/15 00:56:48;;;;;;;;;;;;;;;19.25;50.47;100551.53;2064543;28;2209;-71
2024/03/15 00:57:50;;;;;;;;;;;;;;;19.25;50.39;100548.66;2067190;28;2206;-71
2024/03/15 00:58:52;;;;;;;;;;;;;;;19.24;50.37;100544.31;2068029;28;2184;-70
2024/03/15 00:59:53;;;;;;;;;;;;;;;19.26;50.36;100549.38;2068808;28;2110;-70
2024/03/15 01:00:54;;;;;;;;;;;;;;;19.24;50.42;100552.91;2068416;28;6208;-71
2024/03/15 01:01:58;;;;;;;;;;;;;;;19.25;50.37;100542.91;2067914;28;2009;-71
2024/03/15 01:03:00;;;;;;;;;;;;;;;19.25;50.29;100542.19;2068534;28;2052;-72
2024/03/15 01:04:04;;;;;;;;;;;;;;;19.22;50.40;100544.22;2067391;28;2563;-71
2024/03/15 01:05:05;;;;;;;;;;;;;;;19.25;50.43;100542.91;2067397;28;1988;-71
2024/03/15 01:06:07;;;;;;;;;;;;;;;19.24;50.38;100538.56;2066589;28;2057;-70
2024/03/15 01:07:08;;;;;;;;;;;;;;;19.24;50.39;100552.91;2065192;28;2077;-73
2024/03/15 01:08:09;;;;;;;;;;;;;;;19.24;50.37;100541.44;2068065;28;1996;-71
2024/03/15 01:09:13;;;;;;;;;;;;;;;19.25;50.45;100547.91;2068767;28;2354;-71
2024/03/15 01:10:15;;;;;;;;;;;;;;;19.24;50.42;100547.19;2068052;28;1984;-71
2024/03/15 01:11:16;;;;;;;;;;;;;;;19.24;50.14;100544.31;2067366;28;1973;-71
2024/03/15 01:12:17;;;;;;;;;;;;;;;19.24;50.37;100544.31;2067666;28;2187;-71
2024/03/15 01:13:19;;;;;;;;;;;;;;;19.23;50.37;100539.94;2067498;28;2019;-71
2024/03/15 01:14:21;;;;;;;;;;;;;;;19.23;50.42;100542.81;2067982;28;2099;-70
2024/03/15 01:15:22;;;;;;;;;;;;;;;19.22;50.34;100535.59;2066838;28;2036;-71
2024/03/15 01:16:27;;;;;;;;;;;;;;;19.22;50.33;100537.75;2068098;28;2036;-70
2024/03/15 01:17:29;;;;;;;;;;;;;;;19.23;50.38;100534.19;2068112;28;2024;-71
2024/03/15 01:18:30;;;;;;;;;;;;;;;19.23;50.32;100539.94;2068147;28;2029;-71
2024/03/15 01:19:33;;;;;;;;;;;;;;;19.23;50.40;100528.47;2067636;28;2157;-70
2024/03/15 01:20:34;;;;;;;;;;;;;;;19.23;50.44;100533.47;2069241;28;2373;-71
2024/03/15 01:21:36;;;;;;;;;;;;;;;19.23;50.33;100539.94;2068055;28;2175;-71
2024/03/15 01:22:40;;;;;;;;;;;;;;;19.22;50.38;100529.88;2065911;28;2079;-71
2024/03/15 01:23:42;;;;;;;;;;;;;;;19.20;50.44;100529.75;2067087;28;2012;-72
2024/03/15 01:24:44;;;;;;;;;;;;;;;19.22;50.37;100532.00;2066140;28;2078;-70
2024/03/15 01:25:45;;;;;;;;;;;;;;;19.21;50.32;100534.09;2064749;28;1958;-71
2024/03/15 01:26:47;;;;;;;;;;;;;;;19.21;50.50;100519.03;2064766;28;1994;-71
2024/03/15 01:27:48;;;;;;;;;;;;;;;19.21;50.37;100519.75;2065922;28;1950;-71
2024/03/15 01:28:50;;;;;;;;;;;;;;;19.22;50.42;100527.00;2068099;28;2468;-71
2024/03/15 01:29:53;;;;;;;;;;;;;;;19.20;50.34;100518.28;2068314;28;2081;-71
2024/03/15 01:30:54;;;;;;;;;;;;;;;19.21;50.37;100519.75;2066590;28;6121;-71
2024/03/15 01:31:56;;;;;;;;;;;;;;;19.22;50.40;100515.50;2067611;28;2111;-71
2024/03/15 01:32:58;;;;;;;;;;;;;;;19.19;50.24;100510.31;2066297;28;2285;-71
2024/03/15 01:33:59;;;;;;;;;;;;;;;19.21;50.40;100516.88;2068032;28;2166;-71
2024/03/15 01:35:01;;;;;;;;;;;;;;;19.20;50.35;100506.81;2066553;28;2035;-71
2024/03/15 01:36:03;;;;;;;;;;;;;;;19.20;50.23;100518.28;2068389;28;2118;-71
2024/03/15 01:37:04;;;;;;;;;;;;;;;19.20;50.39;100515.41;2066331;28;2066;-71
2024/03/15 01:38:06;;;;;;;;;;;;;;;19.20;50.31;100511.81;2067996;28;2320;-71
2024/03/15 01:39:07;;;;;;;;;;;;;;;19.19;50.32;100505.31;2065844;28;2284;-73
2024/03/15 01:40:10;;;;;;;;;;;;;;;19.19;50.27;100513.91;2067280;28;2004;-71
2024/03/15 01:41:12;;;;;;;;;;;;;;;19.20;50.39;100508.94;2068167;28;2001;-70
2024/03/15 01:42:13;;;;;;;;;;;;;;;19.18;50.37;100505.97;2066168;28;2025;-71
2024/03/15 01:43:15;;;;;;;;;;;;;;;19.19;50.31;100510.31;2067281;28;1958;-71
2024/03/15 01:44:16;;;;;;;;;;;;;;;19.18;50.38;100511.72;2067046;28;2089;-71
2024/03/15 01:45:18;;;;;;;;;;;;;;;19.18;50.36;100509.56;2067296;28;2240;-71
2024/03/15 01:46:21;;;;;;;;;;;;;;;19.18;50.43;100509.56;2066405;28;2033;-70
2024/03/15 01:47:25;;;;;;;;;;;;;;;19.18;50.43;100515.31;2066205;28;1996;-71
2024/03/15 01:48:27;;;;;;;;;;;;;;;19.19;50.45;100516.06;2065904;28;2266;-70
2024/03/15 01:49:28;;;;;;;;;;;;;;;19.20;50.36;100511.81;2066871;28;2007;-71
2024/03/15 01:50:31;;;;;;;;;;;;;;;19.19;50.38;100511.03;2067377;28;1932;-70
2024/03/15 01:51:32;;;;;;;;;;;;;;;19.18;50.32;100508.84;2068413;28;2020;-71
2024/03/15 01:52:34;;;;;;;;;;;;;;;19.18;50.31;100518.19;2067348;28;2004;-71
2024/03/15 01:53:36;;;;;;;;;;;;;;;19.19;50.38;100516.06;2066236;28;2100;-71
2024/03/15 01:54:38;;;;;;;;;;;;;;;19.18;50.27;100515.31;2068195;28;2220;-71
2024/03/15 01:55:39;;;;;;;;;;;;;;;19.17;50.38;100513.84;2066835;28;2032;-70
2024/03/15 01:56:40;;;;;;;;;;;;;;;19.17;50.04;100510.97;2067676;28;2172;-70
2024/03/15 01:57:42;;;;;;;;;;;;;;;19.17;50.36;100510.97;2067096;28;2005;-71
2024/03/15 01:58:45;;;;;;;;;;;;;;;19.17;50.39;100508.09;2067423;28;2037;-70
2024/03/15 01:59:47;;;;;;;;;;;;;;;19.17;50.37;100508.09;2068079;28;2012;-69
2024/03/15 02:00:48;;;;;;;;;;;;;;;19.16;50.32;100512.34;2066708;28;6221;-71
2024/03/15 02:01:58;;;;;;;;;;;;;;;19.16;50.43;100506.63;2066710;28;2341;-72
2024/03/15 02:03:00;;;;;;;;;;;;;;;19.17;50.33;100495.88;2067430;28;1905;-71
2024/03/15 02:04:01;;;;;;;;;;;;;;;19.16;50.46;100503.00;2065677;28;2126;-71
2024/03/15 02:05:03;;;;;;;;;;;;;;;19.16;50.34;100495.13;2065257;28;2007;-70
2024/03/15 02:06:05;;;;;;;;;;;;;;;19.16;50.55;100500.13;2067902;28;2067;-71
2024/03/15 02:07:08;;;;;;;;;;;;;;;19.17;50.40;100502.38;2068163;28;1960;-71
2024/03/15 02:08:15;;;;;;;;;;;;;;;19.16;50.36;100495.13;2067057;28;2322;-72
2024/03/15 02:09:17;;;;;;;;;;;;;;;19.16;50.34;100495.13;2067269;28;1992;-71
2024/03/15 02:10:20;;;;;;;;;;;;;;;19.16;50.28;100503.00;2067526;28;2000;-72
2024/03/15 02:11:22;;;;;;;;;;;;;;;19.16;50.29;100505.88;2066655;28;2049;-72
2024/03/15 02:12:26;;;;;;;;;;;;;;;19.15;50.34;100499.41;2067569;28;1985;-73
2024/03/15 02:13:28;;;;;;;;;;;;;;;19.15;50.25;100499.41;2067627;28;1993;-73
2024/03/15 02:14:29;;;;;;;;;;;;;;;19.16;50.37;100500.88;2067284;28;2115;-73
2024/03/15 02:15:30;;;;;;;;;;;;;;;19.14;50.43;100497.91;2067517;28;2075;-72
2024/03/15 02:16:34;;;;;;;;;;;;;;;19.15;50.39;100492.91;2066515;28;2309;-73
2024/03/15 02:17:36;;;;;;;;;;;;;;;19.14;50.41;100497.91;2067775;28;2058;-73
2024/03/15 02:18:38;;;;;;;;;;;;;;;19.14;50.40;100492.16;2067363;28;2315;-73
2024/03/15 02:19:39;;;;;;;;;;;;;;;19.15;50.34;100495.78;2066664;28;2005;-72
2024/03/15 02:20:41;;;;;;;;;;;;;;;19.14;50.28;100492.16;2066666;28;2068;-73
2024/03/15 02:21:43;;;;;;;;;;;;;;;19.14;50.32;100491.44;2066520;28;2010;-73
2024/03/15 02:22:44;;;;;;;;;;;;;;;19.13;50.28;100496.44;2067300;28;1933;-73
2024/03/15 02:23:46;;;;;;;;;;;;;;;19.12;50.31;100489.19;2065705;28;2063;-73
2024/03/15 02:24:47;;;;;;;;;;;;;;;19.13;50.38;100490.69;2066411;28;2043;-73
2024/03/15 02:25:49;;;;;;;;;;;;;;;19.12;50.34;100488.47;2067400;28;2084;-73
2024/03/15 02:26:51;;;;;;;;;;;;;;;19.11;50.41;100496.34;2064866;28;2004;-73
2024/03/15 02:27:52;;;;;;;;;;;;;;;19.12;50.47;100494.19;2065930;28;2004;-74
2024/03/15 02:28:54;;;;;;;;;;;;;;;19.12;50.38;100486.34;2064084;28;1966;-72
2024/03/15 02:29:55;;;;;;;;;;;;;;;19.11;50.30;100487.72;2064837;28;1988;-73
2024/03/15 02:30:56;;;;;;;;;;;;;;;19.10;50.47;100491.97;2063763;28;6323;-73
2024/03/15 02:31:58;;;;;;;;;;;;;;;19.11;50.46;100499.22;2066118;28;1984;-73
2024/03/15 02:32:59;;;;;;;;;;;;;;;19.12;50.40;100489.19;2067961;28;2103;-73
2024/03/15 02:34:03;;;;;;;;;;;;;;;19.11;50.41;100493.47;2065910;28;1986;-72
2024/03/15 02:35:07;;;;;;;;;;;;;;;19.11;50.40;100492.75;2067610;28;1993;-73
2024/03/15 02:36:25;;;;;;;;;;;;;;;19.10;50.48;100486.22;2067816;28;2036;-73
2024/03/15 02:37:26;;;;;;;;;;;;;;;19.10;50.38;100486.22;2067048;28;2070;-72
2024/03/15 02:38:28;;;;;;;;;;;;;;;19.10;50.37;100486.22;2066152;28;1942;-73
2024/03/15 02:39:29;;;;;;;;;;;;;;;19.10;50.40;100486.22;2066876;28;1952;-73
2024/03/15 02:40:31;;;;;;;;;;;;;;;19.10;50.50;100486.22;2064254;28;1956;-72
2024/03/15 02:41:33;;;;;;;;;;;;;;;19.11;50.36;100487.72;2065790;28;2441;-73
2024/03/15 02:42:36;;;;;;;;;;;;;;;19.10;50.42;100480.50;2066863;28;2095;-72
2024/03/15 02:43:38;;;;;;;;;;;;;;;19.10;50.38;100486.22;2063898;28;2060;-72
2024/03/15 02:44:39;;;;;;;;;;;;;;;19.11;50.35;100482.00;2066711;28;2076;-73
2024/03/15 02:45:41;;;;;;;;;;;;;;;19.11;50.36;100484.13;2065100;28;2074;-73
2024/03/15 02:46:42;;;;;;;;;;;;;;;19.10;50.27;100483.38;2066390;28;2063;-74
2024/03/15 02:47:43;;;;;;;;;;;;;;;19.10;50.32;100486.22;2065518;28;2307;-72
2024/03/15 02:48:45;;;;;;;;;;;;;;;19.09;50.18;100493.38;2066220;28;1980;-73
2024/03/15 02:49:47;;;;;;;;;;;;;;;19.09;50.43;100490.50;2066353;28;2087;-73
2024/03/15 02:50:48;;;;;;;;;;;;;;;19.08;50.48;100491.91;2065560;28;1972;-73
2024/03/15 02:51:51;;;;;;;;;;;;;;;19.08;50.31;100485.41;2068483;28;2008;-73
2024/03/15 02:52:53;;;;;;;;;;;;;;;19.08;50.43;100489.03;2067276;28;1933;-72
2024/03/15 02:53:55;;;;;;;;;;;;;;;19.08;50.41;100489.03;2067313;28;2076;-73
2024/03/15 02:54:56;;;;;;;;;;;;;;;19.07;50.48;100493.28;2065498;28;2115;-73
2024/03/15 02:56:00;;;;;;;;;;;;;;;19.08;50.37;100482.53;2066905;28;2159;-73
2024/03/15 02:57:02;;;;;;;;;;;;;;;19.08;50.34;100491.16;2065119;28;2015;-72
2024/03/15 02:58:03;;;;;;;;;;;;;;;19.07;50.45;100481.06;2064956;28;2031;-73
2024/03/15 02:59:07;;;;;;;;;;;;;;;19.06;50.39;100488.94;2065299;28;1977;-73
2024/03/15 03:00:08;;;;;;;;;;;;;;;19.06;50.49;100474.59;2065792;28;6094;-72
2024/03/15 03:01:10;;;;;;;;;;;;;;;19.08;50.44;100485.41;2066491;28;2076;-73
2024/03/15 03:02:14;;;;;;;;;;;;;;;19.06;50.39;100480.34;2067927;28;2329;-71
2024/03/15 03:03:15;;;;;;;;;;;;;;;19.07;50.41;100484.66;2066922;28;2107;-73
2024/03/15 03:04:18;;;;;;;;;;;;;;;19.07;50.43;100473.19;2065370;28;2018;-73
2024/03/15 03:05:19;;;;;;;;;;;;;;;19.07;50.42;100481.81;2066483;28;2012;-73
2024/03/15 03:06:23;;;;;;;;;;;;;;;19.07;50.33;100473.19;2066974;28;2028;-73
2024/03/15 03:07:24;;;;;;;;;;;;;;;19.07;50.42;100473.19;2066967;28;2006;-73
2024/03/15 03:08:26;;;;;;;;;;;;;;;19.06;50.23;100463.13;2067275;28;2075;-73
2024/03/15 03:09:27;;;;;;;;;;;;;;;19.06;50.45;100468.84;2065697;28;2075;-70
2024/03/15 03:10:28;;;;;;;;;;;;;;;19.07;50.41;100470.31;2067190;28;2120;-73
2024/03/15 03:11:31;;;;;;;;;;;;;;;19.07;50.41;100467.44;2066882;28;2012;-73
2024/03/15 03:12:32;;;;;;;;;;;;;;;19.05;50.41;100455.88;2067424;28;1984;-74
2024/03/15 03:13:34;;;;;;;;;;;;;;;19.06;50.47;100468.84;2066274;28;2037;-74
2024/03/15 03:14:35;;;;;;;;;;;;;;;19.06;50.46;100463.13;2065823;28;2061;-73
2024/03/15 03:15:37;;;;;;;;;;;;;;;19.06;50.47;100465.97;2064651;28;2151;-72
2024/03/15 03:16:38;;;;;;;;;;;;;;;19.04;50.48;100460.88;2066449;28;1986;-74
2024/03/15 03:17:39;;;;;;;;;;;;;;;19.06;50.39;100463.13;2065696;28;2165;-73
2024/03/15 03:18:41;;;;;;;;;;;;;;;19.06;50.43;100460.25;2065495;28;2031;-73
2024/03/15 03:19:42;;;;;;;;;;;;;;;19.05;50.42;100461.63;2066947;28;2330;-72
2024/03/15 03:20:44;;;;;;;;;;;;;;;19.07;50.42;100463.84;2069137;28;2134;-74
2024/03/15 03:21:45;;;;;;;;;;;;;;;19.06;50.45;100454.50;2067584;28;2115;-72
2024/03/15 03:22:51;;;;;;;;;;;;;;;19.05;50.38;100458.75;2065796;28;2258;-73
2024/03/15 03:23:57;;;;;;;;;;;;;;;19.05;50.46;100450.13;2066734;28;2141;-73
2024/03/15 03:24:58;;;;;;;;;;;;;;;19.04;50.40;100465.88;2065565;28;2071;-72
2024/03/15 03:26:00;;;;;;;;;;;;;;;19.04;50.42;100457.28;2066011;28;2164;-73
2024/03/15 03:27:01;;;;;;;;;;;;;;;19.04;50.48;100463.03;2066617;28;1989;-73
2024/03/15 03:28:03;;;;;;;;;;;;;;;19.05;50.45;100450.13;2065271;28;2207;-73
2024/03/15 03:29:05;;;;;;;;;;;;;;;19.04;50.45;100455.16;2067280;28;2065;-73
2024/03/15 03:30:07;;;;;;;;;;;;;;;19.04;50.41;100454.41;2065004;28;6228;-72
2024/03/15 03:31:08;;;;;;;;;;;;;;;19.04;50.35;100448.66;2064230;28;1986;-73
2024/03/15 03:32:09;;;;;;;;;;;;;;;19.04;50.41;100448.66;2066101;28;2298;-73
2024/03/15 03:33:13;;;;;;;;;;;;;;;19.03;50.33;100450.81;2066999;28;2001;-73
2024/03/15 03:34:15;;;;;;;;;;;;;;;19.03;50.39;100450.03;2066283;28;1974;-72
2024/03/15 03:35:16;;;;;;;;;;;;;;;19.03;50.44;100447.16;2065744;28;2115;-73
2024/03/15 03:36:18;;;;;;;;;;;;;;;19.03;50.45;100453.69;2065493;28;2077;-73
2024/03/15 03:37:19;;;;;;;;;;;;;;;19.03;50.42;100447.94;2065693;28;2009;-70
2024/03/15 03:38:21;;;;;;;;;;;;;;;19.03;50.29;100452.91;2065528;28;2047;-73
2024/03/15 03:39:22;;;;;;;;;;;;;;;19.03;50.46;100447.16;2066732;28;2228;-72
2024/03/15 03:40:24;;;;;;;;;;;;;;;19.03;50.29;100447.16;2064808;28;2016;-73
2024/03/15 03:41:26;;;;;;;;;;;;;;;19.02;50.42;100454.31;2065669;28;2017;-71
2024/03/15 03:42:27;;;;;;;;;;;;;;;19.02;50.40;100448.56;2066281;28;1995;-72
2024/03/15 03:43:30;;;;;;;;;;;;;;;19.01;50.32;100450.72;2065331;28;2092;-73
2024/03/15 03:44:32;;;;;;;;;;;;;;;19.02;50.42;100445.72;2066456;28;2081;-73
2024/03/15 03:45:35;;;;;;;;;;;;;;;19.02;50.36;100445.72;2064595;28;2031;-72
2024/03/15 03:46:41;;;;;;;;;;;;;;;19.03;50.29;100442.19;2067736;28;2008;-73
2024/03/15 03:47:48;;;;;;;;;;;;;;;19.03;50.22;100435.69;2067205;28;2059;-71
2024/03/15 03:48:49;;;;;;;;;;;;;;;19.04;50.27;100437.19;2068629;28;1977;-72
2024/03/15 03:49:51;;;;;;;;;;;;;;;19.03;50.23;100430.72;2066421;28;2334;-72
2024/03/15 03:50:52;;;;;;;;;;;;;;;19.04;50.16;100435.06;2066573;28;2032;-72
2024/03/15 03:51:53;;;;;;;;;;;;;;;19.05;50.17;100432.91;2067066;28;2064;-72
2024/03/15 03:52:55;;;;;;;;;;;;;;;19.06;50.14;100428.69;2065690;28;2001;-72
2024/03/15 03:53:57;;;;;;;;;;;;;;;19.07;50.17;100427.28;2066268;28;2068;-72
2024/03/15 03:54:58;;;;;;;;;;;;;;;19.07;50.11;100430.16;2067580;28;2070;-72
2024/03/15 03:56:00;;;;;;;;;;;;;;;19.09;50.02;100426.63;2064301;28;2016;-72
2024/03/15 03:57:01;;;;;;;;;;;;;;;19.08;50.07;100420.16;2067545;28;2037;-72
2024/03/15 03:58:02;;;;;;;;;;;;;;;19.10;49.94;100425.22;2066181;28;2060;-73
2024/03/15 03:59:04;;;;;;;;;;;;;;;19.11;50.00;100423.84;2065761;28;1981;-72
2024/03/15 04:00:14;;;;;;;;;;;;;;;19.11;50.01;100429.59;2065852;28;6084;-72
2024/03/15 04:01:16;;;;;;;;;;;;;;;19.12;49.95;100431.81;2066721;28;2073;-72
2024/03/15 04:02:19;;;;;;;;;;;;;;;19.12;49.93;100426.06;2066987;28;2120;-72
2024/03/15 04:03:20;;;;;;;;;;;;;;;19.13;49.90;100426.81;2065351;28;2061;-72
2024/03/15 04:04:22;;;;;;;;;;;;;;;19.13;49.84;100430.44;2066401;28;2214;-72
2024/03/15 04:05:23;;;;;;;;;;;;;;;19.14;49.83;100426.16;2066314;28;1961;-72
2024/03/15 04:06:25;;;;;;;;;;;;;;;19.15;49.88;100424.78;2065129;28;2057;-72
2024/03/15 04:07:27;;;;;;;;;;;;;;;19.15;49.84;100427.66;2067553;28;2018;-72
2024/03/15 04:08:29;;;;;;;;;;;;;;;19.15;49.91;100424.78;2066171;28;2041;-72
2024/03/15 04:09:30;;;;;;;;;;;;;;;19.15;49.90;100427.66;2065513;28;2030;-72
2024/03/15 04:10:35;;;;;;;;;;;;;;;19.16;49.83;100432.00;2066589;28;1980;-72
2024/03/15 04:11:38;;;;;;;;;;;;;;;19.17;49.90;100427.75;2067458;28;2059;-72
2024/03/15 04:12:40;;;;;;;;;;;;;;;19.16;49.76;100428.38;2066041;28;2109;-72
2024/03/15 04:13:41;;;;;;;;;;;;;;;19.16;49.98;100432.00;2066443;28;2075;-73
2024/03/15 04:14:44;;;;;;;;;;;;;;;19.16;49.95;100420.50;2066283;28;1972;-73
2024/03/15 04:15:56;;;;;;;;;;;;;;;19.17;49.94;100427.75;2065897;28;2083;-73
2024/03/15 04:16:57;;;;;;;;;;;;;;;19.16;49.98;100426.25;2066111;28;2004;-72
2024/03/15 04:17:58;;;;;;;;;;;;;;;19.16;49.96;100426.25;2066082;28;2030;-72
2024/03/15 04:19:03;;;;;;;;;;;;;;;19.17;49.99;100416.25;2065050;28;1949;-73
2024/03/15 04:20:12;;;;;;;;;;;;;;;19.18;49.93;100429.22;2065718;28;2016;-72
2024/03/15 04:21:14;;;;;;;;;;;;;;;19.17;49.83;100424.88;2066308;28;2137;-72
2024/03/15 04:22:16;;;;;;;;;;;;;;;19.18;49.92;100434.22;2066563;28;2048;-73
2024/03/15 04:23:20;;;;;;;;;;;;;;;19.18;49.96;100423.47;2067085;28;2016;-72
2024/03/15 04:24:22;;;;;;;;;;;;;;;19.19;49.93;100424.94;2065381;28;1981;-72
2024/03/15 04:25:25;;;;;;;;;;;;;;;19.19;50.03;100433.53;2066623;28;2024;-72
2024/03/15 04:26:28;;;;;;;;;;;;;;;19.19;50.12;100424.94;2066197;28;1949;-72
2024/03/15 04:27:29;;;;;;;;;;;;;;;19.20;50.04;100429.31;2065331;28;2159;-72
2024/03/15 04:28:32;;;;;;;;;;;;;;;19.20;49.98;100417.81;2069238;28;2028;-73
2024/03/15 04:29:35;;;;;;;;;;;;;;;19.21;50.16;100430.03;2068335;28;1990;-72
2024/03/15 04:30:36;;;;;;;;;;;;;;;19.21;50.12;100425.03;2067682;28;6080;-72
2024/03/15 04:31:39;;;;;;;;;;;;;;;19.21;50.31;100422.16;2068084;28;1999;-72
2024/03/15 04:32:47;;;;;;;;;;;;;;;19.23;50.22;100424.38;2069029;28;2092;-72
2024/03/15 04:33:49;;;;;;;;;;;;;;;19.23;50.32;100430.13;2067642;28;2084;-72
2024/03/15 04:34:51;;;;;;;;;;;;;;;19.24;50.25;100425.84;2067209;28;1968;-72
2024/03/15 04:35:54;;;;;;;;;;;;;;;19.25;50.30;100427.34;2066573;28;1997;-72
2024/03/15 04:36:56;;;;;;;;;;;;;;;19.25;50.31;100430.22;2067746;28;1965;-72
2024/03/15 04:37:58;;;;;;;;;;;;;;;19.25;50.29;100428.09;2068567;28;2109;-72
2024/03/15 04:38:59;;;;;;;;;;;;;;;19.25;50.42;100425.22;2068801;28;2079;-72
2024/03/15 04:40:04;;;;;;;;;;;;;;;19.25;50.37;100422.34;2068158;28;2020;-72
2024/03/15 04:41:11;;;;;;;;;;;;;;;19.25;50.36;100430.94;2068079;28;2020;-73
2024/03/15 04:42:14;;;;;;;;;;;;;;;19.26;50.35;100431.69;2066960;28;2068;-72
2024/03/15 04:43:17;;;;;;;;;;;;;;;19.26;50.39;100425.94;2067483;28;2071;-72
2024/03/15 04:44:18;;;;;;;;;;;;;;;19.25;50.50;100419.47;2067714;28;2009;-72
2024/03/15 04:45:22;;;;;;;;;;;;;;;19.26;50.35;100425.94;2068196;28;2034;-73
2024/03/15 04:46:23;;;;;;;;;;;;;;;19.25;50.47;100416.59;2068968;28;1945;-73
2024/03/15 04:47:26;;;;;;;;;;;;;;;19.26;50.44;100423.06;2067820;28;2233;-72
2024/03/15 04:48:28;;;;;;;;;;;;;;;19.25;50.32;100419.47;2068041;28;2013;-72
2024/03/15 04:49:30;;;;;;;;;;;;;;;19.25;50.28;100416.59;2068348;28;2048;-72
2024/03/15 04:50:31;;;;;;;;;;;;;;;19.25;50.34;100422.34;2067115;28;2023;-73
2024/03/15 04:51:33;;;;;;;;;;;;;;;19.27;50.52;100412.34;2067727;28;1969;-73
2024/03/15 04:52:34;;;;;;;;;;;;;;;19.25;50.41;100408.00;2068832;28;2130;-72
2024/03/15 04:53:36;;;;;;;;;;;;;;;19.25;50.43;100413.72;2067474;28;2015;-72
2024/03/15 04:54:40;;;;;;;;;;;;;;;19.26;50.41;100417.34;2074646;28;2020;-72
2024/03/15 04:55:41;;;;;;;;;;;;;;;19.25;50.35;100413.72;2075533;28;2097;-72
2024/03/15 04:56:45;;;;;;;;;;;;;;;19.25;50.25;100416.59;2068128;28;1984;-72
2024/03/15 04:57:47;;;;;;;;;;;;;;;19.27;50.40;100423.84;2067621;28;2117;-72
2024/03/15 04:58:49;;;;;;;;;;;;;;;19.25;50.44;100416.59;2068394;28;1977;-71
2024/03/15 04:59:51;;;;;;;;;;;;;;;19.26;50.53;100417.34;2067276;28;1968;-72
2024/03/15 05:00:53;;;;;;;;;;;;;;;19.27;50.37;100418.09;2067025;28;6104;-72
2024/03/15 05:01:54;;;;;;;;;;;;;;;19.27;50.24;100420.97;2068532;28;2000;-72
2024/03/15 05:02:55;;;;;;;;;;;;;;;19.28;50.57;100419.56;2067890;28;2143;-72
2024/03/15 05:04:00;;;;;;;;;;;;;;;19.28;50.52;100411.69;2066468;28;1949;-73
2024/03/15 05:05:01;;;;;;;;;;;;;;;19.29;50.63;100415.28;2067700;28;2212;-72
2024/03/15 05:06:04;;;;;;;;;;;;;;;19.30;50.46;100408.91;2067407;28;1986;-73
2024/03/15 05:07:15;;;;;;;;;;;;;;;19.30;50.49;100416.78;2067117;28;2020;-73
2024/03/15 05:08:16;;;;;;;;;;;;;;;19.30;50.70;100417.53;2068572;28;2016;-72
2024/03/15 05:09:18;;;;;;;;;;;;;;;19.30;50.78;100413.91;2067651;28;1964;-73
2024/03/15 05:10:19;;;;;;;;;;;;;;;19.32;50.72;100414.75;2067780;28;2092;-73
2024/03/15 05:11:21;;;;;;;;;;;;;;;19.32;50.74;100409.00;2066773;28;2426;-72
2024/03/15 05:12:23;;;;;;;;;;;;;;;19.32;50.65;100414.75;2066482;28;2044;-72
2024/03/15 05:13:24;;;;;;;;;;;;;;;19.33;50.52;100410.47;2069028;28;2015;-72
2024/03/15 05:14:26;;;;;;;;;;;;;;;19.34;50.71;100414.09;2067604;28;2040;-72
2024/03/15 05:15:27;;;;;;;;;;;;;;;19.33;50.67;100416.22;2067983;28;1988;-72
2024/03/15 05:16:29;;;;;;;;;;;;;;;19.32;50.80;100414.00;2067391;28;2036;-72
2024/03/15 05:17:30;;;;;;;;;;;;;;;19.32;50.68;100420.47;2067610;28;2041;-72
2024/03/15 05:18:33;;;;;;;;;;;;;;;19.33;50.87;100421.22;2067602;28;2045;-72
2024/03/15 05:19:35;;;;;;;;;;;;;;;19.33;50.67;100421.94;2067264;28;1995;-73
2024/03/15 05:20:41;;;;;;;;;;;;;;;19.32;50.77;100414.00;2068210;28;2006;-73
2024/03/15 05:21:43;;;;;;;;;;;;;;;19.33;50.74;100418.34;2068281;28;2241;-72
2024/03/15 05:22:44;;;;;;;;;;;;;;;19.33;50.81;100419.06;2068353;28;2047;-72
2024/03/15 05:23:47;;;;;;;;;;;;;;;19.32;50.75;100414.75;2067977;28;2155;-73